Time;durP1;ratioP1;P1;durP2;ratioP2;P2;SDS_P1;SDS_P2;PMS_P1;PMS_P2;Temp;Humidity;BMP_temperature;BMP_pressure;BME280_temperature;BME280_humidity;BME280_pressure;Samples;Min_cycle;Max_cycle;Signal;HPM_P1;HPM_P2
2023/07/20 15:01:30;;;;;;;5.60;3.35;;;34.50;99.90;;;;;;5067985;28;20388;-55
2023/07/20 15:03:56;;;;;;;5.53;3.08;;;34.10;99.90;;;;;;5067068;28;20094;-56
2023/07/20 15:06:22;;;;;;;6.38;2.92;;;34.00;99.90;;;;;;5054579;28;20044;-56
2023/07/20 15:08:48;;;;;;;5.05;2.90;;;33.90;99.90;;;;;;5049235;28;20029;-55
2023/07/20 15:11:13;;;;;;;5.88;3.65;;;34.20;99.90;;;;;;5048693;28;20036;-55
2023/07/20 15:13:41;;;;;;;4.05;3.38;;;34.00;99.90;;;;;;5046555;28;20022;-55
2023/07/20 15:16:07;;;;;;;8.65;3.85;;;34.10;99.90;;;;;;5049060;28;20033;-55
2023/07/20 15:18:33;;;;;;;9.20;3.42;;;34.10;99.90;;;;;;5056056;28;20101;-54
2023/07/20 15:20:58;;;;;;;5.28;3.30;;;34.00;99.90;;;;;;5066738;28;20029;-56
2023/07/20 15:23:24;;;;;;;5.10;3.70;;;33.60;99.90;;;;;;5086061;28;20040;-56
2023/07/20 15:25:50;;;;;;;5.63;3.30;;;33.50;99.90;;;;;;5044100;28;20041;-55
2023/07/20 15:28:15;;;;;;;5.60;3.95;;;33.80;99.90;;;;;;5048793;28;20067;-55
2023/07/20 15:30:41;;;;;;;5.45;3.50;;;34.00;99.90;;;;;;5049613;28;20033;-55
2023/07/20 15:33:07;;;;;;;7.93;3.75;;;33.90;99.90;;;;;;5065991;28;20040;-56
2023/07/20 15:35:33;;;;;;;5.78;3.22;;;33.50;99.90;;;;;;5056147;28;20392;-55
2023/07/20 15:37:59;;;;;;;4.82;3.17;;;33.50;99.90;;;;;;5048647;28;20040;-57
2023/07/20 15:40:25;;;;;;;6.68;4.20;;;33.50;99.90;;;;;;5048358;28;20489;-57
2023/07/20 15:42:51;;;;;;;6.05;3.75;;;33.60;99.90;;;;;;5045313;28;20108;-57
2023/07/20 15:45:16;;;;;;;10.10;3.85;;;33.60;99.90;;;;;;5028174;28;20044;-57
2023/07/20 15:47:43;;;;;;;4.25;3.13;;;33.90;99.90;;;;;;5052388;28;20027;-56
2023/07/20 15:50:09;;;;;;;4.32;2.92;;;33.90;99.90;;;;;;5064814;28;20124;-56
2023/07/20 15:52:35;;;;;;;5.00;3.45;;;34.00;99.90;;;;;;5063893;28;20572;-56
2023/07/20 15:55:01;;;;;;;6.18;3.50;;;34.20;99.90;;;;;;5047527;28;20108;-56
2023/07/20 15:57:26;;;;;;;5.75;3.22;;;34.10;99.90;;;;;;5048030;28;20022;-56
2023/07/20 15:59:52;;;;;;;5.90;3.38;;;34.10;99.90;;;;;;5046653;28;20484;-56
2023/07/20 16:02:18;;;;;;;6.28;3.80;;;33.70;99.90;;;;;;5062393;28;20041;-56
2023/07/20 16:04:45;;;;;;;6.43;3.58;;;33.70;99.90;;;;;;5047185;28;20032;-56
2023/07/20 16:07:11;;;;;;;8.13;3.85;;;33.70;99.90;;;;;;5045107;28;20049;-61
2023/07/20 16:09:38;;;;;;;5.95;3.88;;;33.80;99.90;;;;;;5048045;28;20032;-59
2023/07/20 16:12:05;;;;;;;5.85;3.92;;;33.50;99.90;;;;;;5043944;28;20033;-58
2023/07/20 16:14:31;;;;;;;5.72;3.80;;;33.50;99.90;;;;;;5053289;28;20040;-58
2023/07/20 16:16:57;;;;;;;5.85;3.63;;;33.60;99.90;;;;;;5052713;28;20025;-60
2023/07/20 16:19:22;;;;;;;8.75;4.35;;;33.60;99.90;;;;;;5049989;28;20037;-58
2023/07/20 16:21:48;;;;;;;5.75;3.65;;;33.60;99.90;;;;;;5051979;28;20044;-58
2023/07/20 16:24:14;;;;;;;6.30;3.60;;;33.60;99.90;;;;;;5039376;28;20055;-58
2023/07/20 16:26:43;;;;;;;7.65;3.40;;;33.60;99.90;;;;;;5034429;28;20060;-59
2023/07/20 16:29:10;;;;;;;6.22;3.50;;;33.50;99.90;;;;;;5047320;28;20159;-58
2023/07/20 16:31:37;;;;;;;6.63;3.47;;;33.20;99.90;;;;;;5033094;28;20524;-58
2023/07/20 16:34:03;;;;;;;5.78;3.83;;;33.20;99.90;;;;;;5034109;28;20033;-59
2023/07/20 16:36:29;;;;;;;6.97;3.42;;;33.10;99.90;;;;;;5043522;28;20025;-59
2023/07/20 16:38:54;;;;;;;7.45;3.90;;;33.20;99.90;;;;;;5053995;28;20020;-58
2023/07/20 16:41:20;;;;;;;5.75;3.13;;;;;;;;;;5043520;28;20079;-59
2023/07/20 16:43:46;;;;;;;6.35;4.18;;;;;;;;;;5039977;28;20476;-59
2023/07/20 16:46:13;;;;;;;8.13;3.30;;;;;;;;;;5053772;28;20053;-58
2023/07/20 16:48:39;;;;;;;6.97;4.07;;;;;;;;;;5037818;28;20495;-58
2023/07/20 16:51:05;;;;;;;7.15;3.92;;;;;;;;;;5033848;28;20021;-58
2023/07/20 16:53:31;;;;;;;5.82;3.97;;;33.00;99.90;;;;;;5032381;28;20376;-58
2023/07/20 16:55:57;;;;;;;7.28;3.90;;;33.00;99.90;;;;;;5033694;28;20026;-59
2023/07/20 16:58:25;;;;;;;8.32;4.63;;;33.00;99.90;;;;;;5031483;28;20037;-59
2023/07/20 17:00:51;;;;;;;7.72;4.50;;;33.00;99.90;;;;;;5032273;28;20049;-58
2023/07/20 17:03:18;;;;;;;11.18;6.38;;;;;;;;;;5033661;28;20032;-59
2023/07/20 17:05:44;;;;;;;9.57;5.63;;;;;;;;;;5033412;28;20422;-59
2023/07/20 17:08:10;;;;;;;5.95;4.22;;;;;;;;;;5039372;28;20138;-58
2023/07/20 17:10:37;;;;;;;6.65;5.40;;;;;;;;;;5049360;28;20039;-58
2023/07/20 17:13:04;;;;;;;9.85;6.90;;;;;;;;;;5039429;28;20033;-58
2023/07/20 17:15:33;;;;;;;8.55;6.32;;;;;;;;;;5045799;28;20036;-58
2023/07/20 17:17:59;;;;;;;6.57;5.40;;;;;;;;;;5045139;28;20032;-58
2023/07/20 17:20:25;;;;;;;7.72;4.90;;;;;;;;;;5044298;28;20037;-58
2023/07/20 17:22:51;;;;;;;5.93;4.70;;;;;;;;;;5030109;28;20053;-58
2023/07/20 17:25:17;;;;;;;7.65;5.20;;;;;;;;;;5049717;28;20033;-58
2023/07/20 17:27:43;;;;;;;8.40;6.03;;;;;;;;;;5030541;28;20040;-58
2023/07/20 17:30:10;;;;;;;9.40;6.00;;;;;;;;;;5041627;28;20041;-59
2023/07/20 17:32:36;;;;;;;8.48;4.38;;;;;;;;;;5017113;28;20044;-57
2023/07/20 17:35:03;;;;;;;6.75;4.30;;;;;;;;;;5048454;28;20041;-59
2023/07/20 17:37:29;;;;;;;7.60;5.40;;;;;;;;;;5049442;28;20036;-58
2023/07/20 17:39:55;;;;;;;8.10;4.45;;;;;;;;;;5016095;28;20036;-59
2023/07/20 17:42:21;;;;;;;12.35;7.07;;;;;;;;;;5011539;28;20060;-58
2023/07/20 17:44:47;;;;;;;7.53;4.90;;;;;;;;;;5039713;28;20087;-59
2023/07/20 17:47:13;;;;;;;8.27;4.50;;;32.00;99.90;;;;;;5029837;28;20061;-58
2023/07/20 17:49:39;;;;;;;6.38;4.28;;;31.80;99.90;;;;;;5030223;28;20428;-58
2023/07/20 17:52:05;;;;;;;10.27;4.70;;;31.50;99.90;;;;;;5030108;28;20041;-58
2023/07/20 17:54:31;;;;;;;6.00;3.83;;;31.20;99.90;;;;;;5045174;28;20124;-58
2023/07/20 17:56:56;;;;;;;5.30;3.70;;;31.00;99.90;;;;;;5038916;28;20175;-58
2023/07/20 17:59:22;;;;;;;5.60;3.65;;;;;;;;;;5045330;28;20047;-58
2023/07/20 18:01:48;;;;;;;8.50;4.35;;;30.60;99.90;;;;;;5043353;28;20859;-58
2023/07/20 18:04:34;;;;;;;12.80;4.78;;;30.60;99.90;;;;;;5049226;28;20061;-61
2023/07/20 18:07:00;;;;;;;18.58;4.45;;;30.60;99.90;;;;;;5060839;28;20090;-58
2023/07/20 18:09:26;;;;;;;13.07;4.90;;;30.60;99.90;;;;;;5069795;28;20041;-58
2023/07/20 18:11:52;;;;;;;10.40;4.65;;;30.50;99.90;;;;;;5067317;28;20048;-58
2023/07/20 18:14:18;;;;;;;14.02;5.63;;;30.40;99.90;;;;;;5049289;28;20438;-60
2023/07/20 18:16:44;;;;;;;14.93;5.47;;;30.40;99.90;;;;;;5047818;28;20033;-58
2023/07/20 18:19:10;;;;;;;13.52;7.07;;;30.30;99.90;;;;;;5051056;28;20036;-58
2023/07/20 18:21:36;;;;;;;14.25;6.57;;;;;;;;;;5047249;28;20151;-58
2023/07/20 18:24:02;;;;;;;13.25;6.05;;;30.10;99.90;;;;;;5006664;28;20123;-59
2023/07/20 18:26:28;;;;;;;12.32;5.68;;;30.10;99.90;;;;;;5046168;28;20649;-58
2023/07/20 18:28:53;;;;;;;10.10;5.05;;;30.00;99.90;;;;;;5069381;28;20033;-58
2023/07/20 18:31:19;;;;;;;10.75;5.57;;;;;;;;;;5037949;28;20124;-59
2023/07/20 18:33:45;;;;;;;15.60;7.15;;;29.80;99.90;;;;;;5046090;28;20048;-58
2023/07/20 18:36:12;;;;;;;13.57;7.43;;;29.80;99.90;;;;;;5061007;28;20043;-58
2023/07/20 18:38:38;;;;;;;13.57;5.95;;;29.70;99.90;;;;;;5041964;28;20037;-58
2023/07/20 18:41:03;;;;;;;14.15;8.23;;;29.60;99.90;;;;;;5031624;28;20044;-58
2023/07/20 18:43:30;;;;;;;24.77;14.50;;;;;;;;;;5048049;28;20064;-58
2023/07/20 18:45:55;;;;;;;66.18;36.58;;;29.10;99.90;;;;;;5040315;28;20043;-58
2023/07/20 18:48:22;;;;;;;54.22;33.80;;;28.80;99.90;;;;;;5045220;28;20041;-59
2023/07/20 18:50:47;;;;;;;71.82;44.03;;;28.70;99.90;;;;;;5050531;28;20111;-59
2023/07/20 18:53:13;;;;;;;16.70;8.80;;;28.80;99.90;;;;;;5051613;28;20116;-59
2023/07/20 18:55:39;;;;;;;15.98;6.53;;;29.00;99.90;;;;;;5051910;28;20400;-58
2023/07/20 18:58:05;;;;;;;16.58;6.47;;;29.00;99.90;;;;;;5031642;28;20087;-59
2023/07/20 19:00:31;;;;;;;13.60;5.82;;;29.00;99.90;;;;;;5031247;28;20115;-58
2023/07/20 19:02:58;;;;;;;10.43;6.15;;;29.00;99.90;;;;;;5031787;28;20036;-58
2023/07/20 19:05:24;;;;;;;13.63;6.13;;;28.90;99.90;;;;;;5031056;28;20079;-59
2023/07/20 19:07:50;;;;;;;17.98;6.95;;;28.90;99.90;;;;;;5030401;28;20022;-58
2023/07/20 19:10:17;;;;;;;10.73;6.05;;;28.90;99.90;;;;;;5035071;28;20113;-58
2023/07/20 19:12:43;;;;;;;12.43;6.05;;;;;;;;;;5039595;28;20025;-57
2023/07/20 19:15:13;;;;;;;10.27;6.38;;;28.70;99.90;;;;;;5029969;28;20443;-59
2023/07/20 19:17:40;;;;;;;8.77;4.60;;;28.60;99.90;;;;;;5033935;28;20116;-59
2023/07/20 19:20:10;;;;;;;6.72;4.70;;;28.40;99.90;;;;;;5041082;28;20044;-59
2023/07/20 19:22:36;;;;;;;9.00;5.13;;;28.40;99.90;;;;;;5062634;28;20076;-58
2023/07/20 19:25:02;;;;;;;10.98;5.18;;;28.40;99.90;;;;;;5039389;28;20020;-60
2023/07/20 19:27:28;;;;;;;7.78;4.97;;;28.40;99.90;;;;;;5040363;28;20037;-59
2023/07/20 19:29:53;;;;;;;9.25;4.80;;;28.40;99.90;;;;;;5046531;28;20029;-56
2023/07/20 19:32:19;;;;;;;6.32;4.32;;;28.30;99.90;;;;;;5048672;28;20175;-56
2023/07/20 19:34:45;;;;;;;5.47;4.78;;;;;;;;;;5040339;28;20577;-61
2023/07/20 19:37:11;;;;;;;7.47;4.32;;;28.20;99.90;;;;;;5044419;28;20037;-63
2023/07/20 19:39:37;;;;;;;8.95;5.07;;;;;;;;;;5048596;28;20044;-61
2023/07/20 19:42:03;;;;;;;7.72;4.90;;;28.10;99.90;;;;;;5040361;28;20494;-63
2023/07/20 19:44:29;;;;;;;14.30;6.20;;;28.00;99.90;;;;;;5041858;28;20041;-63
2023/07/20 19:46:55;;;;;;;9.70;5.65;;;27.90;99.90;;;;;;5048676;28;20043;-60
2023/07/20 19:49:21;;;;;;;11.18;5.90;;;27.80;99.90;;;;;;5045252;28;20025;-61
2023/07/20 19:51:46;;;;;;;9.43;5.22;;;27.80;99.90;;;;;;5051080;28;20175;-64
2023/07/20 19:54:12;;;;;;;8.07;5.80;;;27.70;99.90;;;;;;5048200;28;20036;-61
2023/07/20 19:56:38;;;;;;;10.00;6.20;;;27.60;99.90;;;;;;5042551;28;20037;-59
2023/07/20 19:59:04;;;;;;;8.35;5.53;;;27.10;99.90;;;;;;5054282;28;20033;-58
2023/07/20 20:01:30;;;;;;;8.77;5.22;;;26.90;99.90;;;;;;5048937;28;20115;-56
2023/07/20 20:03:56;;;;;;;10.95;5.07;;;27.10;99.90;;;;;;5061000;28;20129;-58
2023/07/20 20:06:22;;;;;;;11.18;5.28;;;27.20;99.90;;;;;;5045376;28;20546;-55
2023/07/20 20:08:48;;;;;;;8.20;4.50;;;27.10;99.90;;;;;;5033815;28;20506;-57
2023/07/20 20:11:14;;;;;;;8.48;4.63;;;27.20;99.90;;;;;;5045501;28;20081;-55
2023/07/20 20:13:40;;;;;;;7.20;4.90;;;27.10;99.90;;;;;;5045980;28;20033;-57
2023/07/20 20:16:07;;;;;;;11.50;5.25;;;27.10;99.90;;;;;;5047437;28;20032;-56
2023/07/20 20:18:33;;;;;;;12.68;5.32;;;27.00;99.90;;;;;;5038201;28;20045;-56
2023/07/20 20:20:59;;;;;;;7.53;4.82;;;27.00;99.90;;;;;;5052286;28;20045;-55
2023/07/20 20:23:25;;;;;;;7.97;5.78;;;27.00;99.90;;;;;;5039081;28;20091;-55
2023/07/20 20:25:51;;;;;;;8.70;5.38;;;27.00;99.90;;;;;;5045360;28;20017;-55
2023/07/20 20:28:17;;;;;;;9.25;4.78;;;26.80;99.90;;;;;;5045914;28;20079;-54
2023/07/20 20:30:48;;;;;;;8.35;5.25;;;26.80;99.90;;;;;;5044659;28;20475;-55
2023/07/20 20:33:17;;;;;;;6.07;4.10;;;26.80;99.90;;;;;;5038900;28;20459;-55
2023/07/20 20:35:43;;;;;;;10.57;5.18;;;26.70;99.90;;;;;;5038061;28;20044;-55
2023/07/20 20:38:09;;;;;;;11.27;5.50;;;26.70;99.90;;;;;;5043052;28;20056;-55
2023/07/20 20:40:35;;;;;;;11.02;5.05;;;26.70;99.90;;;;;;5018654;28;20037;-55
2023/07/20 20:43:01;;;;;;;6.57;4.45;;;26.80;99.90;;;;;;5042489;28;20038;-55
2023/07/20 20:45:27;;;;;;;8.70;5.20;;;26.50;99.90;;;;;;5053881;28;20045;-55
2023/07/20 20:47:52;;;;;;;9.52;4.85;;;26.30;99.90;;;;;;5045828;28;20087;-55
2023/07/20 20:50:20;;;;;;;8.07;4.85;;;25.90;99.90;;;;;;5035995;28;20025;-55
2023/07/20 20:52:49;;;;;;;7.75;4.82;;;25.80;99.90;;;;;;5040136;28;20033;-55
2023/07/20 20:55:15;;;;;;;7.65;4.65;;;25.50;99.90;;;;;;5042337;28;20038;-55
2023/07/20 20:57:41;;;;;;;8.63;5.18;;;25.30;99.90;;;;;;5035248;28;20885;-55
2023/07/20 21:00:09;;;;;;;7.53;4.68;;;25.30;99.90;;;;;;5104354;27;20056;-55
2023/07/20 21:02:34;;;;;;;8.13;4.90;;;25.00;99.90;;;;;;5055962;28;20395;-55
2023/07/20 21:05:00;;;;;;;7.05;4.80;;;24.90;99.90;;;;;;5039114;28;20021;-54
2023/07/20 21:07:26;;;;;;;8.48;5.25;;;24.90;99.90;;;;;;5046498;28;20028;-55
2023/07/20 21:09:54;;;;;;;11.43;5.00;;;25.00;99.90;;;;;;5040610;28;20483;-55
2023/07/20 21:12:19;;;;;;;10.05;4.30;;;25.30;99.90;;;;;;5045887;28;20468;-55
2023/07/20 21:14:46;;;;;;;7.03;4.97;;;;;;;;;;5046977;28;20060;-54
2023/07/20 21:17:12;;;;;;;7.60;4.60;;;;;;;;;;5058066;28;20041;-55
2023/07/20 21:19:37;;;;;;;8.80;5.15;;;25.70;99.90;;;;;;5051364;28;20028;-55
2023/07/20 21:22:03;;;;;;;10.15;5.78;;;25.80;99.90;;;;;;5039413;28;20024;-55
2023/07/20 21:24:29;;;;;;;7.68;4.72;;;25.90;99.90;;;;;;5033519;28;20041;-56
2023/07/20 21:26:55;;;;;;;7.30;4.50;;;25.90;99.90;;;;;;5047535;28;20033;-55
2023/07/20 21:29:20;;;;;;;6.88;4.55;;;25.80;99.90;;;;;;5033403;28;20032;-55
2023/07/20 21:31:46;;;;;;;6.38;4.57;;;25.80;99.90;;;;;;5031936;28;20044;-55
2023/07/20 21:34:12;;;;;;;7.20;5.13;;;25.80;99.90;;;;;;5030293;28;20037;-55
2023/07/20 21:36:37;;;;;;;9.27;4.68;;;25.80;99.90;;;;;;5032698;28;20022;-55
2023/07/20 21:39:03;;;;;;;8.40;5.00;;;25.80;99.90;;;;;;5033076;28;20156;-55
2023/07/20 21:41:29;;;;;;;9.18;5.18;;;25.70;99.90;;;;;;5032579;28;20460;-55
2023/07/20 21:43:55;;;;;;;9.73;4.57;;;25.60;99.90;;;;;;5031431;28;20051;-56
2023/07/20 21:46:21;;;;;;;9.95;5.47;;;25.70;99.90;;;;;;5035803;28;20100;-55
2023/07/20 21:48:46;;;;;;;9.77;5.45;;;25.80;99.90;;;;;;5050401;28;20033;-55
2023/07/20 21:51:12;;;;;;;9.48;5.50;;;25.80;99.90;;;;;;5052769;28;20032;-55
2023/07/20 21:53:38;;;;;;;9.10;5.50;;;25.80;99.90;;;;;;5051014;28;20071;-55
2023/07/20 21:56:04;;;;;;;11.82;6.40;;;25.80;99.90;;;;;;5052745;28;20033;-56
2023/07/20 21:58:29;;;;;;;10.55;7.38;;;25.80;99.90;;;;;;5045785;28;20038;-55
2023/07/20 22:00:55;;;;;;;12.15;7.70;;;25.90;99.90;;;;;;5049143;28;20049;-55
2023/07/20 22:03:22;;;;;;;10.20;7.47;;;25.90;99.90;;;;;;5055640;28;20069;-55
2023/07/20 22:05:51;;;;;;;10.05;7.28;;;25.90;99.90;;;;;;5032171;28;20515;-55
2023/07/20 22:08:18;;;;;;;11.15;7.53;;;26.00;99.90;;;;;;5029948;28;20480;-54
2023/07/20 22:10:44;;;;;;;12.68;8.10;;;;;;;;;;5078576;28;20060;-55
2023/07/20 22:13:11;;;;;;;13.88;8.25;;;26.10;99.90;;;;;;5031913;28;20029;-55
2023/07/20 22:15:36;;;;;;;11.65;8.15;;;26.10;99.90;;;;;;5031846;28;20072;-55
2023/07/20 22:18:02;;;;;;;13.70;7.93;;;26.00;99.90;;;;;;5045504;28;20469;-54
2023/07/20 22:20:29;;;;;;;17.95;8.45;;;26.00;99.90;;;;;;5029186;28;20038;-56
2023/07/20 22:22:55;;;;;;;16.23;8.52;;;26.00;99.90;;;;;;5045960;28;20542;-54
2023/07/20 22:25:21;;;;;;;11.10;8.30;;;26.00;99.90;;;;;;5032145;28;20021;-55
2023/07/20 22:27:47;;;;;;;12.50;8.18;;;26.10;99.90;;;;;;5031864;28;20036;-55
2023/07/20 22:30:14;;;;;;;12.48;8.23;;;26.10;99.90;;;;;;5032317;28;20108;-54
2023/07/20 22:32:42;;;;;;;11.73;8.32;;;26.10;99.90;;;;;;5029203;28;20036;-54
2023/07/20 22:35:10;;;;;;;10.13;7.50;;;26.10;99.90;;;;;;5031899;28;20116;-55
2023/07/20 22:37:36;;;;;;;13.32;8.32;;;26.20;99.90;;;;;;5045955;28;20041;-55
2023/07/20 22:40:06;;;;;;;13.05;9.00;;;26.20;99.90;;;;;;5031959;28;20065;-55
2023/07/20 22:42:32;;;;;;;10.38;8.30;;;26.20;99.90;;;;;;5029762;28;20041;-55
2023/07/20 22:44:58;;;;;;;13.70;8.30;;;26.20;99.90;;;;;;5028635;28;20037;-55
2023/07/20 22:47:25;;;;;;;12.40;8.43;;;26.20;99.90;;;;;;5031772;28;20026;-54
2023/07/20 22:49:51;;;;;;;12.80;9.60;;;26.10;99.90;;;;;;5029445;28;20513;-55
2023/07/20 22:52:16;;;;;;;11.48;8.18;;;25.80;99.90;;;;;;5012927;28;20041;-55
2023/07/20 22:54:42;;;;;;;12.20;8.70;;;25.70;99.90;;;;;;5012828;28;20809;-54
2023/07/20 22:57:08;;;;;;;9.63;7.43;;;25.60;99.90;;;;;;5028552;28;20041;-54
2023/07/20 22:59:34;;;;;;;12.80;9.10;;;25.60;99.90;;;;;;5050684;28;20053;-54
2023/07/20 23:02:02;;;;;;;10.52;7.65;;;25.70;99.90;;;;;;5051680;28;20113;-54
2023/07/20 23:04:27;;;;;;;9.07;7.25;;;25.70;99.90;;;;;;5051820;28;20051;-55
2023/07/20 23:06:53;;;;;;;10.32;7.93;;;25.50;99.90;;;;;;5051929;28;20460;-55
2023/07/20 23:09:19;;;;;;;12.38;7.63;;;25.50;99.90;;;;;;5033584;28;20095;-55
2023/07/20 23:11:45;;;;;;;11.43;7.85;;;25.40;99.90;;;;;;5031111;28;20433;-55
2023/07/20 23:14:11;;;;;;;11.75;8.05;;;25.40;99.90;;;;;;5028782;28;20045;-54
2023/07/20 23:16:37;;;;;;;12.15;7.50;;;25.00;99.90;;;;;;5031619;28;20036;-55
2023/07/20 23:19:02;;;;;;;13.55;9.23;;;25.00;99.90;;;;;;5031663;28;20088;-55
2023/07/20 23:21:28;;;;;;;10.80;8.52;;;25.20;99.90;;;;;;5028203;28;20056;-55
2023/07/20 23:23:54;;;;;;;11.88;7.93;;;25.20;99.90;;;;;;5035337;28;20044;-54
2023/07/20 23:26:21;;;;;;;10.20;8.32;;;25.30;99.90;;;;;;5035331;28;20021;-54
2023/07/20 23:28:49;;;;;;;10.52;9.10;;;25.20;99.90;;;;;;5035215;28;20024;-55
2023/07/20 23:31:16;;;;;;;10.63;8.02;;;25.00;99.90;;;;;;5035014;28;20029;-54
2023/07/20 23:33:42;;;;;;;10.88;7.80;;;25.00;99.90;;;;;;5031470;28;20029;-54
2023/07/20 23:36:08;;;;;;;12.38;7.97;;;24.90;99.90;;;;;;5035243;28;20087;-55
2023/07/20 23:38:39;;;;;;;11.20;7.40;;;25.00;99.90;;;;;;5035209;28;20435;-55
2023/07/20 23:41:08;;;;;;;9.80;7.90;;;24.90;99.90;;;;;;5016510;28;20504;-55
2023/07/20 23:43:38;;;;;;;13.27;7.80;;;25.00;99.90;;;;;;5034870;28;20159;-55
2023/07/20 23:46:06;;;;;;;13.02;8.27;;;25.00;99.90;;;;;;5033465;28;20025;-54
2023/07/20 23:48:40;;;;;;;11.65;8.75;;;25.00;99.90;;;;;;5035025;28;20037;-54
2023/07/20 23:51:10;;;;;;;9.45;7.50;;;25.10;99.90;;;;;;5034914;28;20068;-55
2023/07/20 23:53:37;;;;;;;11.77;8.10;;;;;;;;;;5032424;28;20060;-55
2023/07/20 23:56:04;;;;;;;13.32;7.72;;;24.80;99.90;;;;;;5034551;28;20029;-55
2023/07/20 23:58:32;;;;;;;9.18;6.72;;;24.80;99.90;;;;;;5029244;28;20500;-54
